Time;durP1;ratioP1;P1;durP2;ratioP2;P2;SDS_P1;SDS_P2;PMS_P1;PMS_P2;Temp;Humidity;BMP_temperature;BMP_pressure;BME280_temperature;BME280_humidity;BME280_pressure;Samples;Min_cycle;Max_cycle;Signal;HPM_P1;HPM_P2
2024/04/26 00:00:32;;;;;;;0.30;0.25;;;12.30;84.50;;;;;;4229527;28;20054;-64
2024/04/26 00:02:33;;;;;;;0.40;0.40;;;12.30;84.20;;;;;;4229101;28;20505;-62
2024/04/26 00:04:35;;;;;;;0.40;0.30;;;12.30;84.60;;;;;;4229423;28;20116;-62
2024/04/26 00:06:42;;;;;;;2.10;1.15;;;12.30;85.00;;;;;;4212301;28;20044;-62
2024/04/26 00:08:43;;;;;;;0.65;0.20;;;12.30;85.00;;;;;;4229396;28;20046;-62
2024/04/26 00:10:44;;;;;;;0.45;0.32;;;12.30;84.90;;;;;;4229180;28;20486;-62
2024/04/26 00:12:45;;;;;;;0.55;0.55;;;12.20;84.90;;;;;;4229346;28;20564;-62
2024/04/26 00:14:47;;;;;;;1.52;0.22;;;12.10;86.10;;;;;;4213133;28;20151;-62
2024/04/26 00:16:48;;;;;;;0.63;0.63;;;12.20;85.70;;;;;;4229267;28;20048;-62
2024/04/26 00:18:49;;;;;;;0.28;0.20;;;12.30;85.50;;;;;;4229048;28;20515;-61
2024/04/26 00:20:51;;;;;;;1.08;0.70;;;12.30;85.30;;;;;;4229582;28;20047;-62
2024/04/26 00:22:53;;;;;;;0.95;0.22;;;12.30;85.30;;;;;;4229036;28;20507;-61
2024/04/26 00:24:54;;;;;;;0.98;0.38;;;12.30;85.00;;;;;;4229015;28;20040;-64
2024/04/26 00:26:55;;;;;;;2.05;1.23;;;12.30;85.30;;;;;;4229265;28;20059;-64
2024/04/26 00:28:56;;;;;;;0.50;0.30;;;12.30;85.40;;;;;;4229130;28;20092;-62
2024/04/26 00:30:59;;;;;;;2.63;0.32;;;12.40;85.40;;;;;;4229171;28;20433;-64
2024/04/26 00:33:00;;;;;;;0.20;0.20;;;12.40;86.00;;;;;;4228877;28;20048;-64
2024/04/26 00:35:01;;;;;;;1.10;0.85;;;12.30;85.80;;;;;;4212254;28;20497;-64
2024/04/26 00:37:02;;;;;;;0.55;0.38;;;12.30;85.50;;;;;;4212221;28;20051;-64
2024/04/26 00:39:05;;;;;;;1.13;0.45;;;12.30;85.50;;;;;;4229214;28;20376;-62
2024/04/26 00:41:06;;;;;;;1.15;0.60;;;12.20;86.30;;;;;;4223952;28;20040;-62
2024/04/26 00:43:08;;;;;;;1.15;0.52;;;12.20;85.60;;;;;;4212342;28;20135;-62
2024/04/26 00:45:09;;;;;;;2.08;0.50;;;12.20;85.50;;;;;;4228475;28;20065;-64
2024/04/26 00:47:10;;;;;;;1.27;0.45;;;12.20;86.00;;;;;;4229052;28;20117;-62
2024/04/26 00:49:12;;;;;;;1.92;0.90;;;12.20;86.30;;;;;;4228987;28;20073;-61
2024/04/26 00:51:13;;;;;;;0.85;0.65;;;12.10;86.10;;;;;;4229371;28;20047;-66
2024/04/26 00:53:15;;;;;;;2.53;0.47;;;12.10;86.40;;;;;;4229471;28;20489;-64
2024/04/26 00:55:18;;;;;;;1.23;0.40;;;12.10;86.50;;;;;;4229211;28;20137;-62
2024/04/26 00:57:19;;;;;;;1.60;0.82;;;12.10;86.90;;;;;;4212095;28;20532;-64
2024/04/26 00:59:21;;;;;;;1.75;0.30;;;12.10;86.90;;;;;;4229116;28;20397;-63
2024/04/26 01:01:23;;;;;;;0.63;0.40;;;12.00;87.10;;;;;;4228896;28;20054;-64
2024/04/26 01:03:24;;;;;;;0.93;0.50;;;12.00;87.50;;;;;;4229230;28;20047;-64
2024/04/26 01:05:25;;;;;;;0.57;0.20;;;12.10;86.80;;;;;;4228878;28;20043;-65
2024/04/26 01:07:27;;;;;;;0.68;0.45;;;12.00;87.00;;;;;;4212239;28;20040;-64
2024/04/26 01:09:28;;;;;;;0.68;0.47;;;12.00;87.30;;;;;;4211878;28;20551;-61
2024/04/26 01:11:30;;;;;;;0.50;0.25;;;11.90;87.30;;;;;;4211893;28;20460;-62
2024/04/26 01:13:32;;;;;;;0.40;0.30;;;12.00;87.00;;;;;;4228658;28;20052;-62
2024/04/26 01:15:33;;;;;;;1.70;0.50;;;12.00;87.00;;;;;;4228197;28;20051;-62
2024/04/26 01:17:34;;;;;;;0.35;0.30;;;12.00;87.40;;;;;;4229326;28;20039;-68
2024/04/26 01:19:35;;;;;;;1.25;0.45;;;12.00;87.30;;;;;;4231535;28;20062;-62
2024/04/26 01:21:37;;;;;;;0.65;0.60;;;11.90;87.00;;;;;;4231652;28;20099;-64
2024/04/26 01:23:38;;;;;;;1.20;1.02;;;12.00;87.30;;;;;;4198362;28;20049;-62
2024/04/26 01:25:52;;;;;;;8.05;1.58;;;12.00;87.30;;;;;;4231661;28;20043;-66
2024/04/26 01:27:56;;;;;;;1.25;0.40;;;12.00;86.70;;;;;;4215538;28;20066;-64
2024/04/26 01:29:57;;;;;;;0.75;0.30;;;12.00;87.10;;;;;;4231385;28;20055;-65
2024/04/26 01:31:58;;;;;;;1.90;0.82;;;11.90;87.00;;;;;;4214595;28;20066;-64
2024/04/26 01:34:00;;;;;;;0.20;0.20;;;11.90;87.50;;;;;;4231875;28;20051;-63
2024/04/26 01:36:02;;;;;;;1.70;0.47;;;12.00;87.50;;;;;;4231511;28;20073;-62
2024/04/26 01:38:03;;;;;;;0.90;0.40;;;11.90;87.70;;;;;;4214648;28;20603;-65
2024/04/26 01:40:05;;;;;;;0.68;0.30;;;11.90;87.70;;;;;;4231692;28;20051;-64
2024/04/26 01:42:08;;;;;;;1.38;0.38;;;12.00;87.70;;;;;;4229017;28;20062;-65
2024/04/26 01:44:09;;;;;;;0.75;0.30;;;11.90;87.30;;;;;;4214539;28;20051;-64
2024/04/26 01:46:11;;;;;;;0.50;0.32;;;11.80;87.30;;;;;;4222218;28;20044;-64
2024/04/26 01:48:12;;;;;;;2.08;0.75;;;11.90;87.70;;;;;;4214590;28;20052;-64
2024/04/26 01:50:13;;;;;;;1.10;0.40;;;11.90;88.00;;;;;;4231414;28;20043;-64
2024/04/26 01:52:15;;;;;;;0.22;0.22;;;11.90;87.80;;;;;;4231395;28;20047;-69
2024/04/26 01:54:16;;;;;;;0.60;0.40;;;11.90;87.90;;;;;;4231473;28;20043;-62
2024/04/26 01:56:17;;;;;;;1.08;0.35;;;11.90;87.40;;;;;;4230901;28;20039;-62
2024/04/26 01:58:20;;;;;;;1.33;0.40;;;12.00;87.50;;;;;;4214198;28;20047;-64
2024/04/26 02:00:21;;;;;;;0.60;0.40;;;12.00;87.70;;;;;;4231302;28;20055;-63
2024/04/26 02:02:22;;;;;;;1.50;0.43;;;12.00;87.70;;;;;;4231064;28;20043;-62
2024/04/26 02:04:23;;;;;;;0.50;0.20;;;12.10;87.30;;;;;;4214201;28;20060;-62
2024/04/26 02:06:24;;;;;;;0.47;0.30;;;12.00;87.60;;;;;;4230848;28;20040;-63
2024/04/26 02:08:26;;;;;;;2.10;0.82;;;11.90;87.70;;;;;;4214301;28;20102;-62
2024/04/26 02:10:28;;;;;;;0.70;0.47;;;11.90;88.50;;;;;;4230769;28;20055;-63
2024/04/26 02:12:29;;;;;;;0.43;0.40;;;12.00;88.30;;;;;;4230834;28;20044;-63
2024/04/26 02:14:31;;;;;;;0.55;0.55;;;12.00;87.90;;;;;;4230791;28;20044;-62
2024/04/26 02:16:32;;;;;;;0.85;0.68;;;12.00;88.20;;;;;;4214116;28;20052;-65
2024/04/26 02:18:33;;;;;;;0.57;0.30;;;12.00;87.80;;;;;;4231020;28;20052;-62
2024/04/26 02:20:35;;;;;;;1.20;0.65;;;12.10;87.70;;;;;;4231065;28;20043;-63
2024/04/26 02:22:36;;;;;;;0.77;0.55;;;12.10;87.70;;;;;;4230810;28;20055;-64
2024/04/26 02:24:37;;;;;;;0.60;0.60;;;12.10;88.10;;;;;;4231038;28;20043;-63
2024/04/26 02:26:39;;;;;;;0.70;0.50;;;12.10;87.80;;;;;;4231153;28;20051;-66
2024/04/26 02:28:40;;;;;;;1.42;0.60;;;12.10;87.60;;;;;;4230196;28;20047;-63
2024/04/26 02:30:43;;;;;;;0.30;0.30;;;12.10;87.50;;;;;;4230913;28;20100;-63
2024/04/26 02:32:45;;;;;;;0.85;0.35;;;12.00;87.80;;;;;;4230677;28;20051;-61
2024/04/26 02:34:46;;;;;;;0.90;0.63;;;12.00;87.80;;;;;;4231024;28;20500;-66
2024/04/26 02:36:47;;;;;;;0.40;0.40;;;12.00;88.20;;;;;;4231200;28;20477;-66
2024/04/26 02:38:48;;;;;;;0.47;0.38;;;12.00;88.30;;;;;;4230594;28;20113;-65
2024/04/26 02:40:50;;;;;;;0.82;0.40;;;12.00;88.40;;;;;;4228178;28;20051;-64
2024/04/26 02:42:51;;;;;;;1.48;0.30;;;12.10;88.60;;;;;;4219222;28;20093;-63
2024/04/26 02:44:52;;;;;;;0.55;0.45;;;12.10;88.30;;;;;;4230616;28;20063;-59
2024/04/26 02:46:55;;;;;;;4.57;1.02;;;12.00;88.80;;;;;;4213776;28;20186;-59
2024/04/26 02:48:56;;;;;;;2.33;0.70;;;12.10;87.80;;;;;;4230328;28;20491;-59
2024/04/26 02:50:57;;;;;;;0.55;0.52;;;12.10;88.50;;;;;;4230549;28;20413;-59
2024/04/26 02:52:58;;;;;;;2.40;1.80;;;12.00;88.40;;;;;;4230277;28;20557;-59
2024/04/26 02:54:59;;;;;;;0.30;0.20;;;11.90;88.40;;;;;;4230284;28;20046;-59
2024/04/26 02:57:02;;;;;;;0.57;0.32;;;11.90;88.40;;;;;;4230091;28;20047;-59
2024/04/26 02:59:04;;;;;;;1.70;0.45;;;11.90;88.90;;;;;;4229976;28;20048;-58
2024/04/26 03:01:05;;;;;;;0.50;0.43;;;11.80;88.70;;;;;;4229986;28;20065;-57
2024/04/26 03:03:09;;;;;;;2.47;0.70;;;11.80;88.70;;;;;;4212996;28;20048;-56
2024/04/26 03:05:10;;;;;;;0.70;0.68;;;11.80;88.90;;;;;;4229978;28;20040;-57
2024/04/26 03:07:12;;;;;;;2.63;1.20;;;11.90;88.60;;;;;;4230300;28;20051;-60
2024/04/26 03:09:14;;;;;;;0.28;0.28;;;11.80;89.30;;;;;;4230042;28;20039;-59
2024/04/26 03:11:18;;;;;;;0.77;0.40;;;11.80;89.60;;;;;;4219330;28;20063;-59
2024/04/26 03:13:20;;;;;;;3.95;1.13;;;11.80;88.80;;;;;;4197303;28;20048;-59
2024/04/26 03:15:22;;;;;;;0.40;0.30;;;11.80;88.70;;;;;;4224873;28;20134;-59
2024/04/26 03:17:23;;;;;;;0.40;0.30;;;11.90;88.40;;;;;;4196389;28;20047;-59
2024/04/26 03:19:26;;;;;;;0.25;0.25;;;11.90;88.40;;;;;;4217328;28;20043;-59
2024/04/26 03:21:27;;;;;;;0.77;0.30;;;11.90;88.10;;;;;;4221928;28;20047;-59
2024/04/26 03:23:28;;;;;;;0.68;0.30;;;11.80;88.60;;;;;;4230162;28;20488;-59
2024/04/26 03:25:29;;;;;;;0.68;0.40;;;11.90;88.90;;;;;;4217483;28;20448;-59
2024/04/26 03:27:30;;;;;;;1.52;0.40;;;11.80;89.00;;;;;;4229412;28;20048;-59
2024/04/26 03:29:31;;;;;;;2.13;0.30;;;11.80;89.10;;;;;;4210184;28;20048;-59
2024/04/26 03:31:33;;;;;;;1.10;0.60;;;11.90;88.70;;;;;;4219818;28;20044;-60
2024/04/26 03:33:34;;;;;;;0.75;0.75;;;12.00;88.90;;;;;;4230201;28;20050;-57
2024/04/26 03:35:36;;;;;;;0.10;0.10;;;12.00;88.40;;;;;;4228717;28;20227;-65
2024/04/26 03:37:38;;;;;;;0.45;0.45;;;12.00;88.80;;;;;;4215570;28;20105;-60
2024/04/26 03:39:39;;;;;;;0.98;0.47;;;11.90;88.60;;;;;;4214208;28;20040;-59
2024/04/26 03:41:40;;;;;;;0.35;0.32;;;11.90;88.70;;;;;;4218659;28;20054;-60
2024/04/26 03:43:41;;;;;;;2.40;0.68;;;11.90;89.40;;;;;;4229970;28;20540;-59
2024/04/26 03:45:42;;;;;;;1.05;0.30;;;11.90;89.10;;;;;;4221285;28;20433;-59
2024/04/26 03:47:43;;;;;;;0.30;0.30;;;11.90;89.20;;;;;;4225217;28;20048;-59
2024/04/26 03:49:45;;;;;;;1.33;0.50;;;11.90;89.70;;;;;;4227966;28;20401;-59
2024/04/26 03:51:47;;;;;;;0.43;0.28;;;11.80;89.20;;;;;;4218134;28;20051;-59
2024/04/26 03:53:48;;;;;;;0.43;0.30;;;11.70;89.20;;;;;;4229844;28;20044;-59
2024/04/26 03:55:49;;;;;;;1.50;0.30;;;11.70;89.70;;;;;;4205747;28;20094;-60
2024/04/26 03:57:51;;;;;;;0.38;0.38;;;11.60;90.00;;;;;;4223289;28;20048;-59
2024/04/26 03:59:53;;;;;;;3.55;0.65;;;11.70;89.70;;;;;;4228604;28;20047;-59
2024/04/26 04:01:54;;;;;;;2.85;1.38;;;11.70;89.60;;;;;;4217623;28;20052;-59
2024/04/26 04:03:59;;;;;;;1.65;0.98;;;11.70;89.70;;;;;;4229362;28;20051;-58
2024/04/26 04:06:00;;;;;;;1.20;0.35;;;11.60;89.70;;;;;;4224480;28;20346;-63
2024/04/26 04:08:05;;;;;;;1.05;0.70;;;11.60;90.20;;;;;;4222053;28;20053;-59
2024/04/26 04:10:07;;;;;;;0.40;0.30;;;11.60;89.80;;;;;;4228706;28;20055;-59
2024/04/26 04:12:08;;;;;;;0.55;0.40;;;11.70;89.90;;;;;;4216230;28;20040;-58
2024/04/26 04:14:09;;;;;;;0.68;0.50;;;11.70;89.70;;;;;;4229663;28;20047;-58
2024/04/26 04:16:10;;;;;;;1.48;0.45;;;11.50;90.00;;;;;;4225574;28;20116;-59
2024/04/26 04:18:13;;;;;;;0.50;0.50;;;11.50;90.10;;;;;;4220157;28;20464;-58
2024/04/26 04:20:14;;;;;;;0.28;0.25;;;11.50;90.30;;;;;;4213262;28;20043;-59
2024/04/26 04:22:16;;;;;;;0.45;0.43;;;11.50;90.30;;;;;;4223742;28;20051;-58
2024/04/26 04:24:18;;;;;;;0.30;0.30;;;11.50;90.50;;;;;;4213582;28;20493;-58
2024/04/26 04:26:19;;;;;;;1.55;1.02;;;11.40;90.50;;;;;;4197580;28;20079;-59
2024/04/26 04:28:20;;;;;;;0.63;0.40;;;11.50;90.40;;;;;;4223441;28;20056;-58
2024/04/26 04:30:22;;;;;;;1.75;0.43;;;11.40;90.20;;;;;;4212396;28;20055;-59
2024/04/26 04:32:23;;;;;;;0.75;0.30;;;11.40;90.60;;;;;;4204700;28;20134;-58
2024/04/26 04:34:24;;;;;;;0.30;0.30;;;11.30;90.60;;;;;;4215560;28;20055;-58
2024/04/26 04:36:25;;;;;;;1.33;0.35;;;11.30;90.60;;;;;;4213660;28;20040;-71
2024/04/26 04:38:26;;;;;;;0.80;0.55;;;11.20;90.80;;;;;;4208672;28;20059;-60
2024/04/26 04:40:29;;;;;;;1.38;0.80;;;11.20;91.10;;;;;;4214516;28;20040;-60
2024/04/26 04:42:30;;;;;;;0.80;0.30;;;11.10;91.30;;;;;;4216718;28;20048;-59
2024/04/26 04:44:32;;;;;;;1.85;0.95;;;11.10;91.00;;;;;;4217716;28;20048;-59
2024/04/26 04:46:33;;;;;;;1.77;0.80;;;11.00;91.50;;;;;;4213505;28;20048;-67
2024/04/26 04:48:34;;;;;;;0.77;0.75;;;11.00;91.40;;;;;;4225804;28;20044;-60
2024/04/26 04:50:35;;;;;;;2.45;1.40;;;11.10;91.40;;;;;;4214198;28;20110;-60
2024/04/26 04:52:36;;;;;;;0.77;0.60;;;11.10;91.20;;;;;;4219101;28;20039;-58
2024/04/26 04:54:39;;;;;;;2.22;1.10;;;11.10;91.30;;;;;;4222971;28;20113;-57
2024/04/26 04:56:41;;;;;;;1.90;1.02;;;11.00;91.40;;;;;;4215586;28;20052;-57
2024/04/26 04:58:42;;;;;;;1.90;0.50;;;11.10;91.30;;;;;;4227886;28;20475;-57
2024/04/26 05:00:43;;;;;;;5.45;2.15;;;11.10;91.20;;;;;;4215609;28;20052;-57
2024/04/26 05:02:45;;;;;;;0.93;0.70;;;11.30;91.30;;;;;;4219113;28;20055;-58
2024/04/26 05:04:46;;;;;;;1.02;0.47;;;11.30;91.10;;;;;;4224319;28;20052;-59
2024/04/26 05:06:47;;;;;;;0.55;0.30;;;11.30;91.00;;;;;;4215245;28;20044;-59
2024/04/26 05:08:48;;;;;;;2.53;0.90;;;11.30;91.10;;;;;;4226105;28;20177;-57
2024/04/26 05:10:50;;;;;;;1.80;1.10;;;11.20;91.00;;;;;;4227121;28;20105;-57
2024/04/26 05:12:53;;;;;;;2.95;0.68;;;11.20;90.90;;;;;;4231903;28;20543;-57
2024/04/26 05:14:54;;;;;;;2.97;2.20;;;11.20;91.30;;;;;;4231973;28;20131;-58
2024/04/26 05:16:55;;;;;;;1.02;0.77;;;11.20;91.70;;;;;;4232163;28;20040;-57
2024/04/26 05:18:56;;;;;;;1.83;0.70;;;11.10;91.60;;;;;;4232530;28;20392;-58
2024/04/26 05:20:57;;;;;;;1.17;0.70;;;11.00;91.90;;;;;;4232810;28;20043;-60
2024/04/26 05:22:59;;;;;;;1.75;0.60;;;11.20;91.90;;;;;;4231905;28;20404;-60
2024/04/26 05:25:00;;;;;;;3.22;0.88;;;11.40;91.40;;;;;;4232277;28;20039;-63
2024/04/26 05:27:01;;;;;;;1.50;1.10;;;11.40;91.30;;;;;;4231911;28;20047;-60
2024/04/26 05:29:04;;;;;;;1.38;0.98;;;11.50;91.00;;;;;;4231559;28;20043;-59
2024/04/26 05:31:05;;;;;;;0.50;0.50;;;11.50;91.30;;;;;;4231872;28;20483;-58
2024/04/26 05:33:06;;;;;;;1.67;1.52;;;11.50;91.60;;;;;;4231413;28;20094;-59
2024/04/26 05:35:07;;;;;;;1.25;0.98;;;11.50;91.60;;;;;;4231754;28;20043;-59
2024/04/26 05:37:08;;;;;;;1.08;0.63;;;11.60;91.70;;;;;;4231187;28;20100;-60
2024/04/26 05:39:09;;;;;;;2.03;0.75;;;11.70;91.10;;;;;;4231685;28;20047;-59
2024/04/26 05:41:12;;;;;;;1.08;0.55;;;11.70;91.20;;;;;;4225827;28;20040;-60
2024/04/26 05:43:16;;;;;;;2.97;0.70;;;11.70;91.30;;;;;;4215127;28;20135;-59
2024/04/26 05:45:19;;;;;;;1.58;1.00;;;11.80;91.20;;;;;;4230662;28;20043;-59
2024/04/26 05:47:20;;;;;;;0.60;0.60;;;11.90;91.20;;;;;;4231565;28;20047;-59
2024/04/26 05:49:22;;;;;;;0.50;0.50;;;12.00;91.30;;;;;;4231153;28;20084;-60
2024/04/26 05:51:23;;;;;;;1.10;0.70;;;11.80;91.50;;;;;;4231278;28;20035;-59
2024/04/26 05:53:24;;;;;;;0.60;0.47;;;11.80;91.20;;;;;;4231642;28;20138;-60
2024/04/26 05:55:25;;;;;;;0.75;0.50;;;11.90;91.20;;;;;;4231267;28;20052;-59
2024/04/26 05:57:26;;;;;;;3.03;1.00;;;11.90;90.80;;;;;;4231483;28;20847;-59
2024/04/26 05:59:27;;;;;;;1.60;0.63;;;11.90;91.00;;;;;;4231132;28;20043;-59
2024/04/26 06:01:32;;;;;;;0.88;0.50;;;11.90;91.10;;;;;;4231331;28;20047;-59
2024/04/26 06:03:33;;;;;;;1.45;0.75;;;12.10;90.90;;;;;;4230922;28;20081;-58
2024/04/26 06:05:34;;;;;;;3.33;1.55;;;12.10;90.90;;;;;;4230961;28;20048;-61
2024/04/26 06:07:35;;;;;;;2.55;0.63;;;12.10;91.00;;;;;;4231411;28;20532;-58
2024/04/26 06:09:36;;;;;;;0.95;0.57;;;12.20;90.50;;;;;;4230863;28;20050;-60
2024/04/26 06:11:37;;;;;;;0.85;0.85;;;12.30;90.40;;;;;;4219785;28;20125;-59
2024/04/26 06:13:38;;;;;;;1.70;0.70;;;12.40;90.60;;;;;;4231283;28;20055;-60
2024/04/26 06:15:40;;;;;;;2.22;0.60;;;12.30;90.40;;;;;;4223011;28;20440;-59
2024/04/26 06:17:42;;;;;;;1.05;0.60;;;12.40;90.00;;;;;;4226548;28;20043;-56
2024/04/26 06:19:43;;;;;;;1.00;0.98;;;12.40;90.20;;;;;;4220364;28;20077;-56
2024/04/26 06:21:44;;;;;;;2.83;1.35;;;12.50;90.50;;;;;;4225261;28;20097;-59
2024/04/26 06:23:46;;;;;;;0.93;0.85;;;12.50;90.40;;;;;;4214304;28;20048;-59
2024/04/26 06:25:47;;;;;;;0.80;0.43;;;12.50;90.40;;;;;;4220315;28;20043;-59
2024/04/26 06:27:48;;;;;;;1.30;0.98;;;12.50;90.20;;;;;;4220578;28;20075;-60
2024/04/26 06:29:52;;;;;;;0.65;0.45;;;12.50;90.10;;;;;;4214342;28;20044;-59
2024/04/26 06:31:55;;;;;;;0.82;0.55;;;12.60;90.80;;;;;;4225683;28;20427;-59
2024/04/26 06:33:58;;;;;;;1.42;0.90;;;12.70;90.50;;;;;;4213691;28;20447;-59
2024/04/26 06:35:59;;;;;;;1.05;0.57;;;12.80;90.20;;;;;;4218440;28;20043;-60
2024/04/26 06:38:00;;;;;;;2.55;0.90;;;12.80;89.60;;;;;;4204745;28;20395;-60
2024/04/26 06:40:02;;;;;;;1.75;1.10;;;12.90;90.50;;;;;;4213990;28;20044;-59
2024/04/26 06:42:03;;;;;;;2.83;1.48;;;12.80;90.00;;;;;;4227105;28;20055;-59
2024/04/26 06:44:04;;;;;;;4.43;0.90;;;12.80;89.40;;;;;;4213853;28;20044;-59
2024/04/26 06:46:05;;;;;;;1.00;0.63;;;12.90;88.90;;;;;;4216459;28;20044;-60
2024/04/26 06:48:07;;;;;;;1.77;0.80;;;13.00;88.00;;;;;;4223443;28;20074;-59
2024/04/26 06:50:10;;;;;;;0.65;0.65;;;13.10;89.00;;;;;;4196912;28;20118;-60
2024/04/26 06:52:12;;;;;;;3.33;1.10;;;13.10;90.30;;;;;;4223990;28;20046;-59
2024/04/26 06:54:13;;;;;;;2.05;0.98;;;13.10;88.20;;;;;;4215479;28;20463;-59
2024/04/26 06:56:14;;;;;;;0.85;0.65;;;13.20;89.80;;;;;;4214756;28;20639;-60
2024/04/26 06:58:15;;;;;;;4.32;0.60;;;13.20;87.90;;;;;;4207664;28;20039;-59
2024/04/26 07:00:16;;;;;;;0.82;0.70;;;13.30;89.50;;;;;;4230486;28;20043;-60
2024/04/26 07:02:18;;;;;;;1.73;1.13;;;13.30;88.80;;;;;;4221427;28;20492;-57
2024/04/26 07:04:19;;;;;;;1.95;0.80;;;13.40;89.00;;;;;;4226210;28;20126;-57
2024/04/26 07:06:22;;;;;;;2.95;0.88;;;13.40;88.40;;;;;;4228841;28;20048;-57
2024/04/26 07:08:23;;;;;;;2.65;0.90;;;13.50;90.00;;;;;;4218864;28;20047;-57
2024/04/26 07:10:24;;;;;;;1.35;0.60;;;13.40;88.50;;;;;;4230326;28;20063;-57
2024/04/26 07:12:25;;;;;;;2.75;1.17;;;13.50;87.60;;;;;;4224315;28;20532;-62
2024/04/26 07:14:26;;;;;;;8.52;0.85;;;13.60;88.50;;;;;;4224798;28;20401;-58
2024/04/26 07:16:27;;;;;;;2.75;1.65;;;13.70;89.50;;;;;;4228609;28;20097;-58
2024/04/26 07:18:28;;;;;;;5.28;1.75;;;13.60;89.00;;;;;;4217457;28;20051;-57
2024/04/26 07:20:31;;;;;;;2.78;1.25;;;13.80;87.10;;;;;;4213182;28;20109;-58
2024/04/26 07:22:33;;;;;;;0.80;0.60;;;13.80;88.00;;;;;;4217978;28;20043;-59
2024/04/26 07:24:35;;;;;;;3.00;1.23;;;13.90;87.00;;;;;;4220375;28;20051;-60
2024/04/26 07:26:36;;;;;;;3.40;1.38;;;13.90;88.00;;;;;;4213509;28;20394;-60
2024/04/26 07:28:37;;;;;;;1.55;0.73;;;14.00;86.50;;;;;;4217484;28;20474;-60
2024/04/26 07:30:40;;;;;;;2.10;0.85;;;14.10;87.00;;;;;;4229829;28;20043;-57
2024/04/26 07:32:41;;;;;;;1.45;1.20;;;14.20;87.30;;;;;;4217447;28;20051;-58
2024/04/26 07:34:42;;;;;;;1.58;0.80;;;14.30;86.20;;;;;;4222369;28;20047;-60
2024/04/26 07:36:44;;;;;;;3.92;1.85;;;14.30;85.10;;;;;;4213238;28;20059;-59
2024/04/26 07:38:47;;;;;;;3.05;0.88;;;14.40;86.00;;;;;;4223784;28;20098;-57
2024/04/26 07:40:48;;;;;;;0.80;0.63;;;14.40;85.30;;;;;;4214257;28;20051;-57
2024/04/26 07:42:49;;;;;;;1.40;1.30;;;14.50;85.90;;;;;;4214379;28;20047;-58
2024/04/26 07:44:53;;;;;;;3.70;0.88;;;14.60;85.80;;;;;;4224142;28;20070;-57
2024/04/26 07:46:54;;;;;;;1.20;0.80;;;14.70;84.80;;;;;;4212639;28;20048;-60
2024/04/26 07:48:57;;;;;;;4.00;1.85;;;14.70;85.00;;;;;;4221701;28;20055;-60
2024/04/26 07:50:59;;;;;;;3.70;1.05;;;14.70;85.10;;;;;;4215814;28;20056;-58
2024/04/26 07:53:00;;;;;;;1.58;1.00;;;14.60;83.90;;;;;;4215742;28;20493;-58
2024/04/26 07:55:02;;;;;;;1.77;0.90;;;14.70;85.40;;;;;;4218184;28;20040;-61
2024/04/26 07:57:04;;;;;;;1.38;0.95;;;14.80;85.10;;;;;;4230010;28;20040;-61
2024/04/26 07:59:05;;;;;;;1.10;0.93;;;14.80;85.50;;;;;;4221671;28;20070;-56
2024/04/26 08:01:06;;;;;;;1.60;1.35;;;14.90;84.20;;;;;;4224620;28;20052;-59
2024/04/26 08:03:07;;;;;;;2.17;1.30;;;15.00;85.00;;;;;;4227966;28;20039;-58
2024/04/26 08:05:09;;;;;;;1.80;1.17;;;15.00;83.40;;;;;;4218226;28;20105;-60
2024/04/26 08:07:10;;;;;;;2.25;0.90;;;15.10;82.40;;;;;;4212730;28;20081;-61
2024/04/26 08:09:11;;;;;;;2.40;1.17;;;15.10;84.00;;;;;;4223559;28;20052;-59
2024/04/26 08:11:13;;;;;;;2.05;1.02;;;15.00;83.00;;;;;;4226307;28;20052;-59
2024/04/26 08:13:15;;;;;;;0.93;0.80;;;15.20;82.80;;;;;;4229203;28;20560;-59
2024/04/26 08:15:16;;;;;;;2.08;1.10;;;15.20;82.80;;;;;;4229085;28;20045;-59
2024/04/26 08:17:17;;;;;;;1.00;0.60;;;15.20;83.00;;;;;;4229516;28;20047;-59
2024/04/26 08:19:20;;;;;;;1.02;0.77;;;15.30;81.70;;;;;;4228985;28;20047;-59
2024/04/26 08:21:21;;;;;;;1.25;0.70;;;15.40;82.00;;;;;;4229354;28;20039;-58
2024/04/26 08:23:22;;;;;;;0.88;0.55;;;15.50;81.70;;;;;;4229188;28;20058;-59
2024/04/26 08:25:23;;;;;;;0.75;0.50;;;15.50;81.10;;;;;;4229168;28;20044;-58
2024/04/26 08:27:26;;;;;;;2.25;0.90;;;15.50;79.90;;;;;;4231130;28;20047;-59
2024/04/26 08:29:27;;;;;;;18.75;1.45;;;15.60;79.40;;;;;;4232505;28;21416;-59
2024/04/26 08:31:28;;;;;;;1.88;1.00;;;15.80;78.50;;;;;;4232438;28;20397;-59
2024/04/26 08:33:29;;;;;;;3.05;1.50;;;15.90;79.00;;;;;;4232717;28;20067;-60
2024/04/26 08:35:30;;;;;;;1.63;1.10;;;15.90;78.20;;;;;;4232501;28;20039;-58
2024/04/26 08:37:31;;;;;;;2.25;0.73;;;15.90;78.10;;;;;;4232770;28;20047;-58
2024/04/26 08:39:32;;;;;;;0.93;0.80;;;16.00;77.50;;;;;;4232644;28;20044;-56
2024/04/26 08:41:34;;;;;;;2.65;1.83;;;16.00;78.90;;;;;;4228009;28;20056;-56
2024/04/26 08:43:36;;;;;;;3.13;1.40;;;16.10;78.10;;;;;;4232742;28;20140;-56
2024/04/26 08:45:41;;;;;;;3.25;1.35;;;16.30;78.60;;;;;;4232104;28;20122;-58
2024/04/26 08:47:44;;;;;;;4.90;1.20;;;16.30;77.80;;;;;;4232382;28;20127;-58
2024/04/26 08:49:48;;;;;;;5.95;1.15;;;16.30;77.40;;;;;;4232270;28;20044;-56
2024/04/26 08:51:53;;;;;;;3.40;0.70;;;16.10;78.30;;;;;;4232229;28;20036;-57
2024/04/26 08:53:54;;;;;;;2.28;0.85;;;16.10;76.50;;;;;;4232576;28;20085;-56
2024/04/26 08:55:56;;;;;;;1.45;1.02;;;16.10;76.30;;;;;;4231439;28;20043;-56
2024/04/26 08:57:57;;;;;;;1.42;1.00;;;16.20;77.40;;;;;;4232443;28;20046;-58
2024/04/26 09:00:03;;;;;;;2.13;0.80;;;16.30;77.50;;;;;;4231557;28;20051;-59
2024/04/26 09:02:05;;;;;;;2.28;1.20;;;16.30;76.70;;;;;;4232266;28;20048;-58
2024/04/26 09:04:06;;;;;;;3.30;0.80;;;16.30;75.70;;;;;;4232485;28;20044;-58
2024/04/26 09:06:08;;;;;;;1.60;0.63;;;16.40;76.60;;;;;;4232014;28;20401;-58
2024/04/26 09:08:10;;;;;;;2.88;1.08;;;16.50;75.60;;;;;;4232129;28;20073;-57
2024/04/26 09:10:11;;;;;;;0.65;0.63;;;16.60;76.00;;;;;;4231491;28;20059;-57
2024/04/26 09:12:12;;;;;;;1.45;0.80;;;16.60;77.30;;;;;;4219715;28;20048;-58
2024/04/26 09:14:16;;;;;;;1.52;1.08;;;16.60;75.80;;;;;;4231953;28;20055;-57
2024/04/26 09:16:20;;;;;;;0.73;0.60;;;16.60;76.30;;;;;;4230620;28;20040;-61
2024/04/26 09:18:21;;;;;;;0.88;0.63;;;16.60;77.30;;;;;;4222731;28;20044;-58
2024/04/26 09:20:22;;;;;;;2.08;0.98;;;16.60;76.90;;;;;;4198325;28;20569;-59
2024/04/26 09:22:24;;;;;;;1.05;0.60;;;16.40;75.20;;;;;;4218796;28;20433;-57
2024/04/26 09:24:25;;;;;;;0.70;0.60;;;16.30;76.20;;;;;;4231718;28;20444;-57
2024/04/26 09:26:27;;;;;;;1.13;0.90;;;16.20;76.00;;;;;;4227489;28;20044;-58
2024/04/26 09:28:28;;;;;;;1.35;0.60;;;16.00;75.80;;;;;;4207474;28;20036;-59
2024/04/26 09:30:29;;;;;;;1.48;0.95;;;16.10;76.70;;;;;;4215206;28;20051;-60
2024/04/26 09:32:31;;;;;;;0.68;0.50;;;16.30;76.10;;;;;;4225267;28;20047;-58
2024/04/26 09:34:35;;;;;;;1.02;0.60;;;16.20;75.90;;;;;;4216853;28;20044;-58
2024/04/26 09:36:41;;;;;;;0.73;0.40;;;16.20;76.00;;;;;;4216384;28;20643;-58
2024/04/26 09:38:43;;;;;;;1.23;0.65;;;16.20;76.10;;;;;;4224625;28;20040;-60
2024/04/26 09:40:47;;;;;;;0.85;0.60;;;16.40;76.30;;;;;;4214800;28;20044;-60
2024/04/26 09:42:52;;;;;;;0.77;0.50;;;16.50;76.90;;;;;;4224616;28;20059;-60
2024/04/26 09:44:54;;;;;;;2.13;1.33;;;16.50;75.00;;;;;;4199886;28;20098;-60
2024/04/26 09:46:56;;;;;;;1.67;0.60;;;16.50;76.40;;;;;;4218680;28;20048;-61
2024/04/26 09:48:59;;;;;;;0.73;0.60;;;16.50;75.00;;;;;;4209433;28;20114;-60
2024/04/26 09:51:04;;;;;;;2.70;1.40;;;16.70;73.90;;;;;;4231489;28;20093;-58
2024/04/26 09:53:06;;;;;;;1.40;0.65;;;16.60;74.10;;;;;;4205714;28;20052;-59
2024/04/26 09:55:08;;;;;;;1.63;0.80;;;16.50;74.40;;;;;;4229737;28;20066;-58
2024/04/26 09:57:09;;;;;;;1.08;0.60;;;16.30;74.90;;;;;;4229448;28;20040;-58
2024/04/26 09:59:10;;;;;;;3.22;0.70;;;16.40;75.80;;;;;;4219890;28;20035;-60
2024/04/26 10:01:15;;;;;;;1.00;0.80;;;16.40;76.50;;;;;;4231518;28;20433;-59
2024/04/26 10:03:17;;;;;;;7.78;0.73;;;16.40;77.00;;;;;;4205944;28;20048;-60
2024/04/26 10:05:20;;;;;;;1.20;0.90;;;16.40;77.50;;;;;;4227266;28;20473;-60
2024/04/26 10:07:23;;;;;;;2.15;1.27;;;16.40;76.60;;;;;;4229551;28;20047;-60
2024/04/26 10:09:28;;;;;;;2.50;0.98;;;16.40;77.50;;;;;;4219869;28;20404;-60
2024/04/26 10:11:29;;;;;;;1.85;1.02;;;16.30;78.60;;;;;;4230588;28;20051;-60
2024/04/26 10:13:31;;;;;;;2.08;0.68;;;16.20;77.20;;;;;;4223586;28;20048;-60
2024/04/26 10:15:34;;;;;;;1.90;1.08;;;16.20;78.10;;;;;;4225882;28;20043;-60
2024/04/26 10:17:46;;;;;;;1.63;1.00;;;16.20;77.30;;;;;;4229697;28;20413;-60
2024/04/26 10:19:58;;;;;;;6.53;2.22;;;16.30;77.00;;;;;;4207426;28;20040;-61
2024/04/26 10:22:03;;;;;;;5.40;2.45;;;16.30;76.20;;;;;;4214188;28;20477;-61
2024/04/26 10:24:05;;;;;;;0.95;0.90;;;16.40;76.00;;;;;;4223164;28;20031;-60
2024/04/26 10:26:07;;;;;;;6.90;1.70;;;16.40;75.70;;;;;;4217314;28;20048;-62
2024/04/26 10:28:09;;;;;;;3.65;0.77;;;16.50;75.60;;;;;;4198859;28;20040;-60
2024/04/26 10:30:14;;;;;;;1.88;0.75;;;16.50;72.90;;;;;;4225171;28;20105;-60
2024/04/26 10:32:15;;;;;;;2.85;1.35;;;16.70;74.50;;;;;;4213896;28;20048;-60
2024/04/26 10:34:17;;;;;;;5.53;1.52;;;16.90;75.00;;;;;;4221808;28;20035;-61